Terminal Aerodrome Forecast
Issued by NWS

Home | Current Version | Previous Version | Text Only | Print | Product List | Glossary On
Versions: 1 2 3 4 5 6 7 8 9 10 11 12 13 14 15 16
000
FTUS46 KLOX 251700 AAA
TAFOXR
TAF AMD
KOXR 251752Z 2518/2618 27008KT P6SM SCT015
     FM260500 VRB03KT P6SM SKC
     FM261300 VRB03KT 5SM BR OVC007
     FM261600 VRB05KT P6SM SCT010=

USA.gov is the U.S. government's official web portal to all federal, state and local government web resources and services.